Atka Airport

About
Name: Atka Airport
Identifier:  AKB/PAAK
Serves:  Atka, Alaska
Owner:  Alaska DOT&PF - Central Region
Public/Private:  Public
Local Time:  17. Aug 20:44 HDT
Description: Atka Airport is a state owned, public use airport located two nautical miles north of the central business district of Atka, a city on Atka Island in the U.S. state of Alaska. Scheduled commercial airline passenger service is subsidized by the Essential Air Service program.
Source: Wikipedia
Location
Runways
Identifier Length (m/ft) Surface
16/34 4,500/4,500 Asphalt
Flights per Day
0 flights
Distance: 545km (338mi)
Punctuality
75% (0 flights per day delayed)
Delay Average: 205 minutes
Current Weather
 12 C (Humidity: 81%)
  11kt (20km/h / 12mph) from 100°
  Overcast at 1,700 feet (518 meter)
  14km (9 mi.)
 METAR PAAK 180456Z AUTO 10011KT 9SM OVC017 12/09 A3022 RMK AO2 SLP234 T01170094 PNO $

Current Flights

Departures
Number Departure To Airline
Arrivals
Number Arrival From Airline

Current Delays

Departures
N/A
Arrivals
N/A

Destinations

Top Destinations
Airport Flights
per week
Seats
per week
  Unalaska (DUT) 0 - 0 0

Airlines & Planes

Top Airlines
Airline Flights
per Day
Seats
per Day
Jet Charter Inc ( Franklin Lakes Nj ) 0 -
Top Plane Types
Model Flights Seats
Beech B200 Super King Air 0.0/day - 0